sensor_id;sensor_type;location;lat;lon;timestamp;pressure;altitude;pressure_sealevel;temperature;humidity
2188;BME280;1100;52.014;8.540;2023-01-29T00:01:05;101476.59;;;-2.55;87.14
2188;BME280;1100;52.014;8.540;2023-01-29T00:03:31;101475.81;;;-2.56;87.19
2188;BME280;1100;52.014;8.540;2023-01-29T00:05:56;101463.59;;;-2.58;87.20
2188;BME280;1100;52.014;8.540;2023-01-29T00:08:21;101461.50;;;-2.61;87.09
2188;BME280;1100;52.014;8.540;2023-01-29T00:10:47;101464.88;;;-2.65;86.80
2188;BME280;1100;52.014;8.540;2023-01-29T00:13:12;101463.59;;;-2.67;87.17
2188;BME280;1100;52.014;8.540;2023-01-29T00:15:37;101453.50;;;-2.67;87.24
2188;BME280;1100;52.014;8.540;2023-01-29T00:18:03;101451.88;;;-2.68;86.70
2188;BME280;1100;52.014;8.540;2023-01-29T00:20:29;101453.00;;;-2.69;86.87
2188;BME280;1100;52.014;8.540;2023-01-29T00:22:55;101449.16;;;-2.68;86.93
2188;BME280;1100;52.014;8.540;2023-01-29T00:25:20;101453.78;;;-2.68;86.92
2188;BME280;1100;52.014;8.540;2023-01-29T00:27:45;101448.97;;;-2.71;86.76
2188;BME280;1100;52.014;8.540;2023-01-29T00:30:11;101442.75;;;-2.72;86.83
2188;BME280;1100;52.014;8.540;2023-01-29T00:32:38;101445.47;;;-2.72;86.92
2188;BME280;1100;52.014;8.540;2023-01-29T00:35:04;101445.16;;;-2.70;87.11
2188;BME280;1100;52.014;8.540;2023-01-29T00:37:30;101441.00;;;-2.68;87.06
2188;BME280;1100;52.014;8.540;2023-01-29T00:39:55;101446.44;;;-2.68;86.99
2188;BME280;1100;52.014;8.540;2023-01-29T00:42:20;101448.06;;;-2.67;87.02
2188;BME280;1100;52.014;8.540;2023-01-29T00:45:05;101457.00;;;-2.66;87.02
2188;BME280;1100;52.014;8.540;2023-01-29T00:47:30;101437.94;;;-2.66;87.15
2188;BME280;1100;52.014;8.540;2023-01-29T00:49:58;101431.22;;;-2.69;86.95
2188;BME280;1100;52.014;8.540;2023-01-29T00:52:23;101438.75;;;-2.66;86.89
2188;BME280;1100;52.014;8.540;2023-01-29T00:54:53;101440.53;;;-2.61;86.92
2188;BME280;1100;52.014;8.540;2023-01-29T00:57:18;101439.41;;;-2.60;87.01
2188;BME280;1100;52.014;8.540;2023-01-29T00:59:46;101432.25;;;-2.56;87.08
2188;BME280;1100;52.014;8.540;2023-01-29T01:02:12;101426.78;;;-2.56;87.00
2188;BME280;1100;52.014;8.540;2023-01-29T01:04:55;101426.28;;;-2.58;86.93
2188;BME280;1100;52.014;8.540;2023-01-29T01:07:21;101434.28;;;-2.61;86.71
2188;BME280;1100;52.014;8.540;2023-01-29T01:09:46;101433.00;;;-2.64;86.71
2188;BME280;1100;52.014;8.540;2023-01-29T01:12:30;101429.28;;;-2.68;86.69
2188;BME280;1100;52.014;8.540;2023-01-29T01:14:56;101424.16;;;-2.70;86.87
2188;BME280;1100;52.014;8.540;2023-01-29T01:17:22;101430.09;;;-2.68;86.79
2188;BME280;1100;52.014;8.540;2023-01-29T01:19:47;101427.69;;;-2.69;86.54
2188;BME280;1100;52.014;8.540;2023-01-29T01:22:12;101422.38;;;-2.75;86.50
2188;BME280;1100;52.014;8.540;2023-01-29T01:24:38;101411.81;;;-2.76;86.62
2188;BME280;1100;52.014;8.540;2023-01-29T01:27:03;101395.00;;;-2.78;86.38
2188;BME280;1100;52.014;8.540;2023-01-29T01:29:29;101390.50;;;-2.83;86.43
2188;BME280;1100;52.014;8.540;2023-01-29T01:31:54;101386.00;;;-2.88;86.58
2188;BME280;1100;52.014;8.540;2023-01-29T01:34:20;101381.19;;;-2.91;86.50
2188;BME280;1100;52.014;8.540;2023-01-29T01:36:47;101382.91;;;-2.95;86.60
2188;BME280;1100;52.014;8.540;2023-01-29T01:39:12;101383.22;;;-2.96;86.49
2188;BME280;1100;52.014;8.540;2023-01-29T01:41:37;101382.28;;;-3.01;86.66
2188;BME280;1100;52.014;8.540;2023-01-29T01:44:04;101385.00;;;-3.01;86.51
2188;BME280;1100;52.014;8.540;2023-01-29T01:46:32;101385.00;;;-3.01;86.49
2188;BME280;1100;52.014;8.540;2023-01-29T01:49:10;101389.16;;;-3.03;86.41
2188;BME280;1100;52.014;8.540;2023-01-29T01:51:40;101392.97;;;-3.04;86.58
2188;BME280;1100;52.014;8.540;2023-01-29T01:54:09;101404.97;;;-3.05;86.66
2188;BME280;1100;52.014;8.540;2023-01-29T01:56:42;101398.41;;;-3.04;86.79
2188;BME280;1100;52.014;8.540;2023-01-29T01:59:15;101403.84;;;-3.04;86.67
2188;BME280;1100;52.014;8.540;2023-01-29T02:01:43;101404.16;;;-3.06;86.40
2188;BME280;1100;52.014;8.540;2023-01-29T02:04:16;101405.59;;;-3.08;86.65
2188;BME280;1100;52.014;8.540;2023-01-29T02:07:02;101410.06;;;-3.13;86.76
2188;BME280;1100;52.014;8.540;2023-01-29T02:10:06;101412.47;;;-3.11;86.90
2188;BME280;1100;52.014;8.540;2023-01-29T02:12:32;101410.38;;;-3.14;86.65
2188;BME280;1100;52.014;8.540;2023-01-29T02:14:58;101422.06;;;-3.14;86.90
2188;BME280;1100;52.014;8.540;2023-01-29T02:17:24;101419.31;;;-3.14;86.95
2188;BME280;1100;52.014;8.540;2023-01-29T02:20:19;101413.88;;;-3.14;86.92
2188;BME280;1100;52.014;8.540;2023-01-29T02:28:11;101416.28;;;-3.12;86.72
2188;BME280;1100;52.014;8.540;2023-01-29T02:31:09;101414.88;;;-3.09;86.95
2188;BME280;1100;52.014;8.540;2023-01-29T02:33:58;101426.25;;;-3.07;86.99
2188;BME280;1100;52.014;8.540;2023-01-29T02:47:21;101441.31;;;-3.01;87.07
2188;BME280;1100;52.014;8.540;2023-01-29T02:50:07;101437.00;;;-3.02;87.06
2188;BME280;1100;52.014;8.540;2023-01-29T02:52:39;101439.22;;;-3.04;87.18
2188;BME280;1100;52.014;8.540;2023-01-29T02:55:20;101431.56;;;-3.02;87.31
2188;BME280;1100;52.014;8.540;2023-01-29T02:57:48;101429.03;;;-2.98;87.07
2188;BME280;1100;52.014;8.540;2023-01-29T03:00:20;101431.25;;;-3.01;86.93
2188;BME280;1100;52.014;8.540;2023-01-29T03:02:59;101431.25;;;-3.01;87.21
2188;BME280;1100;52.014;8.540;2023-01-29T03:05:59;101433.66;;;-2.99;86.95
2188;BME280;1100;52.014;8.540;2023-01-29T03:08:39;101423.28;;;-2.97;87.18
2188;BME280;1100;52.014;8.540;2023-01-29T03:11:13;101425.06;;;-2.92;87.20
2188;BME280;1100;52.014;8.540;2023-01-29T03:16:13;101427.47;;;-2.91;86.97
2188;BME280;1100;52.014;8.540;2023-01-29T03:18:42;101431.78;;;-2.90;87.09
2188;BME280;1100;52.014;8.540;2023-01-29T03:21:13;101419.59;;;-2.92;87.14
2188;BME280;1100;52.014;8.540;2023-01-29T03:24:09;101418.34;;;-2.86;87.35
2188;BME280;1100;52.014;8.540;2023-01-29T03:26:55;101418.34;;;-2.86;87.05
2188;BME280;1100;52.014;8.540;2023-01-29T03:29:41;101411.91;;;-2.90;86.88
2188;BME280;1100;52.014;8.540;2023-01-29T03:32:27;101410.31;;;-2.91;86.95
2188;BME280;1100;52.014;8.540;2023-01-29T03:34:57;101413.03;;;-2.91;86.89
2188;BME280;1100;52.014;8.540;2023-01-29T03:37:31;101402.47;;;-2.93;87.05
2188;BME280;1100;52.014;8.540;2023-01-29T03:40:00;101408.72;;;-2.92;87.07
2188;BME280;1100;52.014;8.540;2023-01-29T03:48:35;101406.94;;;-2.97;86.94
2188;BME280;1100;52.014;8.540;2023-01-29T03:51:27;101395.25;;;-2.97;87.04
2188;BME280;1100;52.014;8.540;2023-01-29T03:54:18;101386.91;;;-3.01;87.05
2188;BME280;1100;52.014;8.540;2023-01-29T03:57:11;101393.59;;;-3.07;86.83
2188;BME280;1100;52.014;8.540;2023-01-29T04:02:30;101390.41;;;-3.09;87.05
2188;BME280;1100;52.014;8.540;2023-01-29T04:05:05;101382.25;;;-3.09;87.19
2188;BME280;1100;52.014;8.540;2023-01-29T04:07:34;101376.00;;;-3.10;87.04
2188;BME280;1100;52.014;8.540;2023-01-29T04:12:30;101374.41;;;-3.11;87.14
2188;BME280;1100;52.014;8.540;2023-01-29T04:15:00;101370.06;;;-3.12;87.22
2188;BME280;1100;52.014;8.540;2023-01-29T04:17:33;101368.13;;;-3.11;87.04
2188;BME280;1100;52.014;8.540;2023-01-29T04:20:01;101355.03;;;-3.09;87.35
2188;BME280;1100;52.014;8.540;2023-01-29T04:22:35;101353.59;;;-3.07;87.29
2188;BME280;1100;52.014;8.540;2023-01-29T04:25:07;101346.72;;;-3.04;87.32
2188;BME280;1100;52.014;8.540;2023-01-29T04:30:22;101327.03;;;-3.01;87.30
2188;BME280;1100;52.014;8.540;2023-01-29T04:38:37;101302.41;;;-2.96;87.39
2188;BME280;1100;52.014;8.540;2023-01-29T04:41:37;101298.88;;;-2.96;87.28
2188;BME280;1100;52.014;8.540;2023-01-29T04:59:49;101287.16;;;-3.15;87.22
2188;BME280;1100;52.014;8.540;2023-01-29T05:02:18;101277.34;;;-3.25;87.16
2188;BME280;1100;52.014;8.540;2023-01-29T05:04:45;101287.78;;;-3.27;87.23
2188;BME280;1100;52.014;8.540;2023-01-29T05:07:13;101283.44;;;-3.28;87.39
2188;BME280;1100;52.014;8.540;2023-01-29T05:09:41;101288.56;;;-3.26;87.48
2188;BME280;1100;52.014;8.540;2023-01-29T05:12:09;101288.22;;;-3.25;87.64
2188;BME280;1100;52.014;8.540;2023-01-29T05:14:36;101284.09;;;-3.22;87.63
2188;BME280;1100;52.014;8.540;2023-01-29T05:17:09;101288.22;;;-3.25;87.53
2188;BME280;1100;52.014;8.540;2023-01-29T05:19:37;101290.50;;;-3.27;87.37
2188;BME280;1100;52.014;8.540;2023-01-29T05:22:04;101298.16;;;-3.29;87.43
2188;BME280;1100;52.014;8.540;2023-01-29T05:24:30;101298.78;;;-3.32;87.62
2188;BME280;1100;52.014;8.540;2023-01-29T05:26:55;101305.03;;;-3.31;87.52
2188;BME280;1100;52.014;8.540;2023-01-29T05:29:44;101304.53;;;-3.33;87.60
2188;BME280;1100;52.014;8.540;2023-01-29T05:32:09;101315.91;;;-3.31;87.71
2188;BME280;1100;52.014;8.540;2023-01-29T05:34:35;101306.44;;;-3.34;87.61
2188;BME280;1100;52.014;8.540;2023-01-29T05:37:00;101318.25;;;-3.39;87.54
2188;BME280;1100;52.014;8.540;2023-01-29T05:39:25;101316.34;;;-3.38;87.65
2188;BME280;1100;52.014;8.540;2023-01-29T05:41:51;101306.41;;;-3.43;87.57
2188;BME280;1100;52.014;8.540;2023-01-29T05:44:16;101308.00;;;-3.42;87.47
2188;BME280;1100;52.014;8.540;2023-01-29T05:46:41;101298.88;;;-3.46;87.61
2188;BME280;1100;52.014;8.540;2023-01-29T05:49:08;101300.78;;;-3.46;87.83
2188;BME280;1100;52.014;8.540;2023-01-29T05:51:33;101298.88;;;-3.46;87.89
2188;BME280;1100;52.014;8.540;2023-01-29T05:53:58;101295.03;;;-3.45;87.94
2188;BME280;1100;52.014;8.540;2023-01-29T05:56:25;101299.06;;;-3.42;88.01
2188;BME280;1100;52.014;8.540;2023-01-29T05:58:50;101311.34;;;-3.45;87.80
2188;BME280;1100;52.014;8.540;2023-01-29T06:01:22;101327.97;;;-3.46;87.89
2188;BME280;1100;52.014;8.540;2023-01-29T06:03:47;101333.72;;;-3.48;88.13
2188;BME280;1100;52.014;8.540;2023-01-29T06:06:16;101322.84;;;-3.48;87.93
2188;BME280;1100;52.014;8.540;2023-01-29T06:08:41;101322.06;;;-3.48;87.96
2188;BME280;1100;52.014;8.540;2023-01-29T06:11:09;101324.78;;;-3.48;87.96
2188;BME280;1100;52.014;8.540;2023-01-29T06:13:35;101329.72;;;-3.51;88.09
2188;BME280;1100;52.014;8.540;2023-01-29T06:16:09;101304.44;;;-3.51;88.31
2188;BME280;1100;52.014;8.540;2023-01-29T06:18:36;101302.53;;;-3.51;88.30
2188;BME280;1100;52.014;8.540;2023-01-29T06:21:04;101308.47;;;-3.48;88.11
2188;BME280;1100;52.014;8.540;2023-01-29T06:23:30;101307.66;;;-3.49;88.22
2188;BME280;1100;52.014;8.540;2023-01-29T06:26:03;101311.97;;;-3.48;88.25
2188;BME280;1100;52.014;8.540;2023-01-29T06:28:29;101329.41;;;-3.49;88.39
2188;BME280;1100;52.014;8.540;2023-01-29T06:30:59;101334.22;;;-3.46;88.28
2188;BME280;1100;52.014;8.540;2023-01-29T06:33:25;101337.44;;;-3.44;88.42
2188;BME280;1100;52.014;8.540;2023-01-29T06:36:02;101342.25;;;-3.41;88.56
2188;BME280;1100;52.014;8.540;2023-01-29T06:38:28;101344.97;;;-3.41;88.38
2188;BME280;1100;52.014;8.540;2023-01-29T06:40:55;101351.19;;;-3.40;88.50
2188;BME280;1100;52.014;8.540;2023-01-29T06:43:21;101346.25;;;-3.38;88.74
2188;BME280;1100;52.014;8.540;2023-01-29T06:45:52;101335.25;;;-3.33;88.68
2188;BME280;1100;52.014;8.540;2023-01-29T06:48:18;101348.84;;;-3.33;88.37
2188;BME280;1100;52.014;8.540;2023-01-29T06:50:44;101332.22;;;-3.31;88.55
2188;BME280;1100;52.014;8.540;2023-01-29T06:53:10;101333.50;;;-3.29;88.54
2188;BME280;1100;52.014;8.540;2023-01-29T06:55:35;101326.63;;;-3.26;88.83
2188;BME280;1100;52.014;8.540;2023-01-29T06:58:08;101333.38;;;-3.23;88.63
2188;BME280;1100;52.014;8.540;2023-01-29T07:00:34;101312.91;;;-3.21;88.69
2188;BME280;1100;52.014;8.540;2023-01-29T07:03:00;101305.69;;;-3.17;88.85
2188;BME280;1100;52.014;8.540;2023-01-29T07:05:26;101318.84;;;-3.19;88.48
2188;BME280;1100;52.014;8.540;2023-01-29T07:07:51;101325.88;;;-3.18;88.67
2188;BME280;1100;52.014;8.540;2023-01-29T07:10:17;101323.78;;;-3.21;88.44
2188;BME280;1100;52.014;8.540;2023-01-29T07:12:42;101324.59;;;-3.20;88.72
2188;BME280;1100;52.014;8.540;2023-01-29T07:15:08;101320.25;;;-3.21;88.74
2188;BME280;1100;52.014;8.540;2023-01-29T07:17:33;101335.16;;;-3.19;88.78
2188;BME280;1100;52.014;8.540;2023-01-29T07:20:01;101327.47;;;-3.17;88.63
2188;BME280;1100;52.014;8.540;2023-01-29T07:22:26;101333.38;;;-3.23;88.68
2188;BME280;1100;52.014;8.540;2023-01-29T07:24:51;101324.09;;;-3.22;88.50
2188;BME280;1100;52.014;8.540;2023-01-29T07:27:17;101334.47;;;-3.25;88.73
2188;BME280;1100;52.014;8.540;2023-01-29T07:29:42;101351.59;;;-3.24;88.76
2188;BME280;1100;52.014;8.540;2023-01-29T07:32:07;101340.09;;;-3.21;88.87
2188;BME280;1100;52.014;8.540;2023-01-29T07:34:32;101325.38;;;-3.20;88.92
2188;BME280;1100;52.014;8.540;2023-01-29T07:36:58;101325.88;;;-3.18;88.81
2188;BME280;1100;52.014;8.540;2023-01-29T07:39:24;101321.25;;;-3.17;88.90
2188;BME280;1100;52.014;8.540;2023-01-29T07:41:49;101309.56;;;-3.18;88.87
2188;BME280;1100;52.014;8.540;2023-01-29T07:44:14;101315.00;;;-3.18;88.81
2188;BME280;1100;52.014;8.540;2023-01-29T07:46:40;101319.00;;;-3.15;88.82
2188;BME280;1100;52.014;8.540;2023-01-29T07:49:05;101331.81;;;-3.16;88.85
2188;BME280;1100;52.014;8.540;2023-01-29T07:51:30;101323.97;;;-3.17;88.80
2188;BME280;1100;52.014;8.540;2023-01-29T07:53:56;101307.97;;;-3.19;88.77
2188;BME280;1100;52.014;8.540;2023-01-29T07:56:21;101294.03;;;-3.17;88.98
2188;BME280;1100;52.014;8.540;2023-01-29T07:58:46;101272.75;;;-3.15;88.74
2188;BME280;1100;52.014;8.540;2023-01-29T08:01:12;101280.59;;;-3.14;88.84
2188;BME280;1100;52.014;8.540;2023-01-29T08:03:37;101285.25;;;-3.14;88.88
2188;BME280;1100;52.014;8.540;2023-01-29T08:06:03;101275.66;;;-3.11;89.13
2188;BME280;1100;52.014;8.540;2023-01-29T08:08:28;101284.31;;;-3.09;89.00
2188;BME280;1100;52.014;8.540;2023-01-29T08:10:54;101290.22;;;-3.07;88.95
2188;BME280;1100;52.014;8.540;2023-01-29T08:13:19;101282.03;;;-3.07;88.91
2188;BME280;1100;52.014;8.540;2023-01-29T08:15:45;101264.63;;;-3.06;89.12
2188;BME280;1100;52.014;8.540;2023-01-29T08:18:11;101257.41;;;-3.02;88.77
2188;BME280;1100;52.014;8.540;2023-01-29T08:20:37;101250.22;;;-2.98;88.92
2188;BME280;1100;52.014;8.540;2023-01-29T08:23:07;101251.34;;;-2.90;89.07
2188;BME280;1100;52.014;8.540;2023-01-29T08:25:34;101243.69;;;-2.88;88.88
2188;BME280;1100;52.014;8.540;2023-01-29T08:28:00;101235.69;;;-2.84;89.09
2188;BME280;1100;52.014;8.540;2023-01-29T08:30:27;101246.41;;;-2.79;88.92
2188;BME280;1100;52.014;8.540;2023-01-29T08:32:53;101251.53;;;-2.78;88.91
2188;BME280;1100;52.014;8.540;2023-01-29T08:35:18;101264.03;;;-2.77;88.78
2188;BME280;1100;52.014;8.540;2023-01-29T08:37:51;101255.06;;;-2.77;88.47
2188;BME280;1100;52.014;8.540;2023-01-29T08:40:17;101253.94;;;-2.76;89.03
2188;BME280;1100;52.014;8.540;2023-01-29T08:42:42;101262.91;;;-2.76;88.93
2188;BME280;1100;52.014;8.540;2023-01-29T08:45:08;101266.28;;;-2.79;88.74
2188;BME280;1100;52.014;8.540;2023-01-29T08:47:33;101288.03;;;-2.79;88.92
2188;BME280;1100;52.014;8.540;2023-01-29T08:49:59;101278.75;;;-2.78;88.93
2188;BME280;1100;52.014;8.540;2023-01-29T08:52:24;101280.69;;;-2.78;88.53
2188;BME280;1100;52.014;8.540;2023-01-29T08:54:49;101272.53;;;-2.78;89.23
2188;BME280;1100;52.014;8.540;2023-01-29T08:57:14;101266.59;;;-2.80;88.80
2188;BME280;1100;52.014;8.540;2023-01-29T08:59:40;101263.53;;;-2.79;88.91
2188;BME280;1100;52.014;8.540;2023-01-29T09:02:05;101250.88;;;-2.75;88.77
2188;BME280;1100;52.014;8.540;2023-01-29T09:04:30;101252.34;;;-2.68;88.96
2188;BME280;1100;52.014;8.540;2023-01-29T09:06:56;101248.69;;;-2.55;88.79
2188;BME280;1100;52.014;8.540;2023-01-29T09:09:21;101264.34;;;-2.43;88.92
2188;BME280;1100;52.014;8.540;2023-01-29T09:11:46;101247.88;;;-2.38;88.35
2188;BME280;1100;52.014;8.540;2023-01-29T09:14:12;101251.53;;;-2.33;88.65
2188;BME280;1100;52.014;8.540;2023-01-29T09:16:38;101260.50;;;-2.24;88.72
2188;BME280;1100;52.014;8.540;2023-01-29T09:19:03;101252.50;;;-2.20;88.69
2188;BME280;1100;52.014;8.540;2023-01-29T09:21:29;101254.25;;;-2.16;88.61
2188;BME280;1100;52.014;8.540;2023-01-29T09:23:54;101255.84;;;-2.15;88.94
2188;BME280;1100;52.014;8.540;2023-01-29T09:26:19;101250.41;;;-2.15;88.32
2188;BME280;1100;52.014;8.540;2023-01-29T09:28:45;101250.09;;;-2.22;88.05
2188;BME280;1100;52.014;8.540;2023-01-29T09:31:10;101240.97;;;-2.26;88.83
2188;BME280;1100;52.014;8.540;2023-01-29T09:33:35;101241.31;;;-2.28;88.38
2188;BME280;1100;52.014;8.540;2023-01-29T09:36:02;101237.94;;;-2.24;88.68
2188;BME280;1100;52.014;8.540;2023-01-29T09:38:27;101248.97;;;-2.21;88.07
2188;BME280;1100;52.014;8.540;2023-01-29T09:41:14;101248.50;;;-2.23;88.31
2188;BME280;1100;52.014;8.540;2023-01-29T09:43:47;101249.44;;;-2.19;88.23
2188;BME280;1100;52.014;8.540;2023-01-29T09:46:28;101251.22;;;-2.14;88.55
2188;BME280;1100;52.014;8.540;2023-01-29T09:52:16;101255.16;;;-1.94;88.39
2188;BME280;1100;52.014;8.540;2023-01-29T09:57:19;101251.47;;;-1.89;88.16
2188;BME280;1100;52.014;8.540;2023-01-29T09:59:47;101240.59;;;-1.98;88.03
2188;BME280;1100;52.014;8.540;2023-01-29T10:02:44;101238.53;;;-2.01;87.93
2188;BME280;1100;52.014;8.540;2023-01-29T10:05:40;101238.53;;;-2.01;88.32
2188;BME280;1100;52.014;8.540;2023-01-29T10:13:24;101224.06;;;-1.93;88.27
2188;BME280;1100;52.014;8.540;2023-01-29T10:24:35;101200.16;;;-1.48;88.06
2188;BME280;1100;52.014;8.540;2023-01-29T10:27:02;101189.84;;;-1.42;87.98
2188;BME280;1100;52.014;8.540;2023-01-29T10:29:30;101191.59;;;-1.38;87.87
2188;BME280;1100;52.014;8.540;2023-01-29T10:31:57;101192.34;;;-1.28;88.04
2188;BME280;1100;52.014;8.540;2023-01-29T10:34:48;101191.97;;;-1.18;88.13
2188;BME280;1100;52.014;8.540;2023-01-29T10:37:21;101188.25;;;-1.13;88.46
2188;BME280;1100;52.014;8.540;2023-01-29T10:39:48;101188.25;;;-1.13;88.35
2188;BME280;1100;52.014;8.540;2023-01-29T10:44:48;101183.56;;;-1.13;88.42
2188;BME280;1100;52.014;8.540;2023-01-29T10:55:49;101149.34;;;-1.31;88.41
2188;BME280;1100;52.014;8.540;2023-01-29T11:00:54;101161.66;;;-1.25;88.68
2188;BME280;1100;52.014;8.540;2023-01-29T11:03:24;101158.28;;;-1.22;88.70
2188;BME280;1100;52.014;8.540;2023-01-29T11:05:55;101166.28;;;-1.17;88.68
2188;BME280;1100;52.014;8.540;2023-01-29T11:08:24;101158.56;;;-1.15;88.71
2188;BME280;1100;52.014;8.540;2023-01-29T11:13:28;101142.19;;;-1.15;88.34
2188;BME280;1100;52.014;8.540;2023-01-29T11:15:55;101134.34;;;-1.16;88.45
2188;BME280;1100;52.014;8.540;2023-01-29T11:18:20;101130.13;;;-1.14;88.72
2188;BME280;1100;52.014;8.540;2023-01-29T11:20:59;101130.06;;;-1.05;88.40
2188;BME280;1100;52.014;8.540;2023-01-29T11:23:32;101129.38;;;-1.02;88.71
2188;BME280;1100;52.014;8.540;2023-01-29T11:25:58;101119.75;;;-0.99;88.34
2188;BME280;1100;52.014;8.540;2023-01-29T11:28:43;101125.31;;;-0.95;88.54
2188;BME280;1100;52.014;8.540;2023-01-29T11:31:35;101124.31;;;-0.91;88.74
2188;BME280;1100;52.014;8.540;2023-01-29T11:34:20;101120.91;;;-0.88;88.70
2188;BME280;1100;52.014;8.540;2023-01-29T11:36:58;101122.97;;;-0.84;88.85
2188;BME280;1100;52.014;8.540;2023-01-29T11:39:26;101113.09;;;-0.77;88.88
2188;BME280;1100;52.014;8.540;2023-01-29T11:42:02;101108.59;;;-0.72;88.68
2188;BME280;1100;52.014;8.540;2023-01-29T11:44:31;101112.25;;;-0.68;88.58
2188;BME280;1100;52.014;8.540;2023-01-29T11:47:27;101106.66;;;-0.72;88.36
2188;BME280;1100;52.014;8.540;2023-01-29T11:49:57;101100.06;;;-0.71;88.70
2188;BME280;1100;52.014;8.540;2023-01-29T11:52:33;101091.31;;;-0.64;89.04
2188;BME280;1100;52.014;8.540;2023-01-29T11:55:02;101083.25;;;-0.60;88.82
2188;BME280;1100;52.014;8.540;2023-01-29T11:57:39;101084.06;;;-0.60;88.76
2188;BME280;1100;52.014;8.540;2023-01-29T12:00:19;101072.78;;;-0.58;88.55
2188;BME280;1100;52.014;8.540;2023-01-29T12:05:24;101074.94;;;-0.52;88.83
2188;BME280;1100;52.014;8.540;2023-01-29T12:07:53;101083.75;;;-0.46;88.79
2188;BME280;1100;52.014;8.540;2023-01-29T12:15:37;101053.69;;;-0.46;88.57
2188;BME280;1100;52.014;8.540;2023-01-29T12:18:22;101053.34;;;-0.44;88.64
2188;BME280;1100;52.014;8.540;2023-01-29T12:20:54;101044.81;;;-0.43;88.73
2188;BME280;1100;52.014;8.540;2023-01-29T12:26:10;101033.88;;;-0.43;88.59
2188;BME280;1100;52.014;8.540;2023-01-29T12:31:51;101023.19;;;-0.35;88.66
2188;BME280;1100;52.014;8.540;2023-01-29T12:37:23;101018.28;;;-0.30;88.51
2188;BME280;1100;52.014;8.540;2023-01-29T12:39:52;101020.66;;;-0.28;88.79
2188;BME280;1100;52.014;8.540;2023-01-29T12:42:20;101007.47;;;-0.26;88.75
2188;BME280;1100;52.014;8.540;2023-01-29T12:45:07;101002.47;;;-0.24;88.82
2188;BME280;1100;52.014;8.540;2023-01-29T12:47:41;100995.50;;;-0.21;88.60
2188;BME280;1100;52.014;8.540;2023-01-29T12:50:33;100993.25;;;-0.19;88.59
2188;BME280;1100;52.014;8.540;2023-01-29T12:58:22;100986.63;;;-0.18;88.46
2188;BME280;1100;52.014;8.540;2023-01-29T13:00:54;100977.97;;;-0.20;88.37
2188;BME280;1100;52.014;8.540;2023-01-29T13:03:27;100976.16;;;-0.16;88.48
2188;BME280;1100;52.014;8.540;2023-01-29T13:06:09;100981.50;;;-0.20;87.99
2188;BME280;1100;52.014;8.540;2023-01-29T13:08:44;100972.06;;;-0.22;88.01
2188;BME280;1100;52.014;8.540;2023-01-29T13:11:21;100976.25;;;-0.25;88.06
2188;BME280;1100;52.014;8.540;2023-01-29T13:13:51;100983.00;;;-0.22;87.83
2188;BME280;1100;52.014;8.540;2023-01-29T13:16:22;100970.78;;;-0.25;87.86
2188;BME280;1100;52.014;8.540;2023-01-29T13:18:59;100969.56;;;-0.28;88.10
2188;BME280;1100;52.014;8.540;2023-01-29T13:21:30;100972.63;;;-0.29;87.92
2188;BME280;1100;52.014;8.540;2023-01-29T13:24:02;100966.34;;;-0.30;87.94
2188;BME280;1100;52.014;8.540;2023-01-29T13:26:28;100958.63;;;-0.28;88.01
2188;BME280;1100;52.014;8.540;2023-01-29T13:28:55;100953.16;;;-0.28;87.87
2188;BME280;1100;52.014;8.540;2023-01-29T13:34:08;100950.97;;;-0.22;87.78
2188;BME280;1100;52.014;8.540;2023-01-29T13:36:44;100940.50;;;-0.20;87.72
2188;BME280;1100;52.014;8.540;2023-01-29T13:39:31;100943.25;;;-0.20;87.99
2188;BME280;1100;52.014;8.540;2023-01-29T13:41:59;100944.81;;;-0.19;88.03
2188;BME280;1100;52.014;8.540;2023-01-29T13:44:35;100942.56;;;-0.17;88.08
2188;BME280;1100;52.014;8.540;2023-01-29T13:47:03;100940.16;;;-0.18;88.15
2188;BME280;1100;52.014;8.540;2023-01-29T13:51:55;100926.84;;;-0.20;87.92
2188;BME280;1100;52.014;8.540;2023-01-29T13:54:23;100930.81;;;-0.17;87.99
2188;BME280;1100;52.014;8.540;2023-01-29T13:56:56;100923.78;;;-0.18;87.87
2188;BME280;1100;52.014;8.540;2023-01-29T14:02:26;100931.63;;;-0.17;87.73
2188;BME280;1100;52.014;8.540;2023-01-29T14:07:58;100919.81;;;-0.21;87.75
2188;BME280;1100;52.014;8.540;2023-01-29T14:10:26;100911.59;;;-0.21;87.50
2188;BME280;1100;52.014;8.540;2023-01-29T14:12:54;100914.22;;;-0.24;87.55
2188;BME280;1100;52.014;8.540;2023-01-29T14:15:38;100905.91;;;-0.28;86.94
2188;BME280;1100;52.014;8.540;2023-01-29T14:20:49;100922.56;;;-0.33;87.24
2188;BME280;1100;52.014;8.540;2023-01-29T14:23:22;100910.34;;;-0.36;87.48
2188;BME280;1100;52.014;8.540;2023-01-29T14:25:48;100910.69;;;-0.38;87.37
2188;BME280;1100;52.014;8.540;2023-01-29T14:28:18;100910.69;;;-0.38;87.71
2188;BME280;1100;52.014;8.540;2023-01-29T14:30:46;100902.84;;;-0.39;86.98
2188;BME280;1100;52.014;8.540;2023-01-29T14:33:34;100909.81;;;-0.42;87.36
2188;BME280;1100;52.014;8.540;2023-01-29T14:36:12;100895.34;;;-0.42;87.23
2188;BME280;1100;52.014;8.540;2023-01-29T14:38:45;100891.47;;;-0.41;87.39
2188;BME280;1100;52.014;8.540;2023-01-29T14:41:29;100891.81;;;-0.43;87.08
2188;BME280;1100;52.014;8.540;2023-01-29T14:46:59;100893.41;;;-0.42;87.03
2188;BME280;1100;52.014;8.540;2023-01-29T14:52:22;100889.09;;;-0.43;87.02
2188;BME280;1100;52.014;8.540;2023-01-29T14:54:49;100888.41;;;-0.40;86.54
2188;BME280;1100;52.014;8.540;2023-01-29T14:57:16;100872.34;;;-0.41;86.79
2188;BME280;1100;52.014;8.540;2023-01-29T14:59:52;100877.47;;;-0.40;87.32
2188;BME280;1100;52.014;8.540;2023-01-29T15:02:22;100873.59;;;-0.39;87.07
2188;BME280;1100;52.014;8.540;2023-01-29T15:04:56;100873.59;;;-0.39;87.19
2188;BME280;1100;52.014;8.540;2023-01-29T15:07:36;100874.06;;;-0.36;86.99
2188;BME280;1100;52.014;8.540;2023-01-29T15:10:16;100876.78;;;-0.36;86.79
2188;BME280;1100;52.014;8.540;2023-01-29T15:15:49;100866.97;;;-0.38;86.36
2188;BME280;1100;52.014;8.540;2023-01-29T15:18:22;100868.47;;;-0.40;86.78
2188;BME280;1100;52.014;8.540;2023-01-29T15:21:01;100867.66;;;-0.41;86.97
2188;BME280;1100;52.014;8.540;2023-01-29T15:23:29;100872.44;;;-0.38;86.83
2188;BME280;1100;52.014;8.540;2023-01-29T15:25:58;100866.56;;;-0.40;86.89
2188;BME280;1100;52.014;8.540;2023-01-29T15:28:27;100874.28;;;-0.42;86.64
2188;BME280;1100;52.014;8.540;2023-01-29T15:30:56;100864.50;;;-0.43;86.60
2188;BME280;1100;52.014;8.540;2023-01-29T15:33:23;100855.03;;;-0.45;86.63
2188;BME280;1100;52.014;8.540;2023-01-29T15:35:54;100855.84;;;-0.45;86.82
2188;BME280;1100;52.014;8.540;2023-01-29T15:38:23;100854.69;;;-0.44;86.69
2188;BME280;1100;52.014;8.540;2023-01-29T15:41:01;100858.13;;;-0.47;86.64
2188;BME280;1100;52.014;8.540;2023-01-29T15:43:34;100854.16;;;-0.49;86.61